Terminal Aerodrome Forecast
Issued by NWS Wilmington, OH

Current Version | Previous Version | Graphics & Text | Print | Product List | Glossary On
Versions: 1 2 3 4 5 6 7 8 9 10 11 12 13 14 15 16 17 18 19 20 21 22 23 24 25 26 27 28 29
000
FTUS41 KILN 270548
TAFCVG
TAF
KCVG 270548Z 2706/2812 16010KT P6SM BKN250 WS020/19045KT
     FM271000 19012G23KT P6SM VCSH BKN100 WS020/20045KT
     FM271200 19013G23KT P6SM VCSH BKN050
     FM271500 22014G24KT P6SM VCSH BKN035
     FM271700 23013G23KT P6SM BKN040
     FM280000 25010KT P6SM SCT050
     FM280400 25004KT P6SM SCT150=

USA.gov is the U.S. government's official web portal to all federal, state and local government web resources and services.